Impacts TAF Board INFO
FOR SITUATIONAL AWARENESS. NOT TO BE USED FOR FLIGHT PLANNING PURPOSES.
IDs:

KDFW - Dallas-Ft Worth Intl, TX, US

Issued at 1120 UTC 19 Jun 2018
Updated at 1237 UTC 19 Jun 2018
Potential Impact None Slight Moderate High
Time1234Z 19/13Z 19/14Z 19/15Z 19/16Z 19/17Z 19/18Z 19/19Z 19/20Z 19/21Z 19/22Z 19/23Z 20/00Z 20/01Z>>
Type OBS PRVL
  [TEMP]  
PRVL
  [TEMP]  
PRVL PRVL PRVL PRVL PRVL PRVL PRVL PRVL PRVL PRVL PRVL
VIS 10 >6 >6 >6 >6 >6 >6 >6 >6 >6 >6 >6 >6 >6
CIG 20 25
  [15]  
25
  [15]  
25 25 25 25 25 25 25 25 25 40 40
Cover BKN BKN
  [BKN]  
BKN
  [BKN]  
BKN BKN BKN BKN BKN BKN BKN BKN BKN BKN BKN
FltCat MVFR MVFR
  [MVFR]  
MVFR
  [MVFR]  
MVFR MVFR MVFR MVFR MVFR MVFR MVFR MVFR MVFR VFR VFR
WX -- VCSH
  [--]  
VCSH
  [--]  
VCSH VCSH VCSH VCSH VCSH VCSH VCSH VCSH VCSH -- --
WDir 120 140
[140]
140
[140]
140 140 140 140 140 140 140 140 140 130 130
WSpd 8 10
  [10]  
10
  [10]  
10 10 10 10 10 10 10 10 10 14 14
WGst -- --
  [--]  
--
  [--]  
-- -- -- -- -- -- -- -- -- -- --

Raw TAF
KDFW 191120Z 1912/2018 14010KT P6SM VCSH BKN025
  TEMPO 1912/1915 BKN015
  FM200000 13014KT P6SM BKN040
  FM200500 15010KT P6SM BKN025
  FM200900 15011KT P6SM BKN015


Raw METAR
KDFW 191234Z 12008KT 10SM FEW009 BKN020 BKN048 23/23 A2997 RMK AO2 T02330228
KDFW 191209Z 12009KT 10SM FEW009 SCT012 BKN048 23/22 A2997 RMK AO2 T02280222
KDFW 191153Z 12007KT 10SM BKN016 BKN020 BKN300 23/23 A2997 RMK AO2 SLP139 60002 70002 T02280228 10250 20228 51008
KDFW 191053Z 14006KT 10SM SCT021 BKN028 BKN046 23/23 A2996 RMK AO2 RAB06E15 SLP135 P0000 T02280228
KDFW 191026Z 15007KT 10SM SCT008 BKN028 BKN033 23/23 A2995 RMK AO2 RAB06E15 P0000 T02280228
KDFW 190953Z 14007KT 6SM BR BKN007 BKN011 OVC018 23/23 A2995 RMK AO2 RAB22E46 CIG 003V008 SLP133 P0002 T02280228
KDFW 190939Z 13006KT 3SM -RA BR BKN005 BKN010 OVC016 23/23 A2995 RMK AO2 RAB22 CIG 003V008 P0002 T02280228
KDFW 190932Z 14007KT 2SM -RA BR SCT005 BKN011 OVC016 23/22 A2995 RMK AO2 RAB22 P0001 T02280222

METAR Board
Radar Display
Forecast Discussion

FOR SITUATIONAL AWARENESS. NOT TO BE USED FOR FLIGHT PLANNING PURPOSES.